Time;durP1;ratioP1;P1;durP2;ratioP2;P2;SDS_P1;SDS_P2;PMS_P1;PMS_P2;Temp;Humidity;BMP_temperature;BMP_pressure;BME280_temperature;BME280_humidity;BME280_pressure;Samples;Min_cycle;Max_cycle;Signal;HPM_P1;HPM_P2
2022/02/21 00:00:33;;;;;;;0.98;0.30;;;6.40;99.90;;;;;;4935134;28;20399;-88
2022/02/21 00:02:59;;;;;;;1.65;0.77;;;6.40;99.90;;;;;;4941463;28;20086;-88
2022/02/21 00:05:26;;;;;;;4.03;0.80;;;6.30;99.90;;;;;;4951999;28;20041;-88
2022/02/21 00:07:52;;;;;;;2.55;0.60;;;6.30;99.90;;;;;;4937737;28;20058;-88
2022/02/21 00:10:17;;;;;;;3.35;1.30;;;6.30;99.90;;;;;;4949142;28;20058;-88
2022/02/21 00:12:43;;;;;;;2.45;0.57;;;6.30;99.90;;;;;;4944823;28;20187;-88
2022/02/21 00:15:09;;;;;;;4.25;0.73;;;6.30;99.90;;;;;;4937932;28;20516;-88
2022/02/21 00:17:35;;;;;;;1.52;0.40;;;6.30;99.90;;;;;;4951918;28;20160;-87
2022/02/21 00:20:00;;;;;;;1.38;0.70;;;6.30;99.90;;;;;;4936642;28;20066;-87
2022/02/21 00:22:26;;;;;;;2.50;0.60;;;6.30;99.90;;;;;;4936256;28;20038;-88
2022/02/21 00:24:53;;;;;;;7.07;1.20;;;6.20;99.90;;;;;;4947175;28;20038;-88
2022/02/21 00:27:19;;;;;;;6.80;1.33;;;6.20;99.90;;;;;;4946298;28;20043;-87
2022/02/21 00:29:45;;;;;;;6.88;1.45;;;6.20;99.90;;;;;;4959753;28;20039;-87
2022/02/21 00:32:11;;;;;;;11.43;1.60;;;6.20;99.90;;;;;;4962479;28;20042;-88
2022/02/21 00:34:37;;;;;;;4.90;1.27;;;6.20;99.90;;;;;;4952976;28;20135;-87
2022/02/21 00:37:03;;;;;;;6.28;1.92;;;6.10;99.90;;;;;;4938923;28;20035;-87
2022/02/21 00:39:28;;;;;;;3.20;0.82;;;6.10;99.90;;;;;;4952003;28;20089;-88
2022/02/21 00:41:54;;;;;;;7.40;1.15;;;6.20;99.90;;;;;;4943754;28;20038;-88
2022/02/21 00:44:19;;;;;;;8.48;2.53;;;6.10;99.90;;;;;;4937873;28;20053;-87
2022/02/21 00:46:45;;;;;;;4.50;1.27;;;6.20;99.90;;;;;;4960766;28;20058;-87
2022/02/21 00:49:10;;;;;;;3.80;1.00;;;6.20;99.90;;;;;;4959389;28;20483;-88
2022/02/21 00:51:36;;;;;;;10.38;1.83;;;6.20;99.90;;;;;;4952948;28;20073;-88
2022/02/21 00:54:01;;;;;;;4.15;1.30;;;6.10;99.90;;;;;;4936463;28;20073;-88
2022/02/21 00:56:27;;;;;;;5.85;1.00;;;6.20;99.90;;;;;;4946056;28;20038;-88
2022/02/21 00:58:52;;;;;;;7.05;1.77;;;6.20;99.90;;;;;;4946215;28;20039;-86
2022/02/21 01:01:18;;;;;;;8.80;2.13;;;6.10;99.90;;;;;;4951866;28;20114;-87
2022/02/21 01:03:43;;;;;;;10.90;1.48;;;6.10;99.90;;;;;;4938452;28;20042;-88
2022/02/21 01:06:11;;;;;;;7.68;1.40;;;6.20;99.90;;;;;;4939052;28;20035;-87
2022/02/21 01:08:37;;;;;;;6.70;1.23;;;6.10;99.90;;;;;;4942362;28;20062;-87
2022/02/21 01:11:02;;;;;;;8.18;1.55;;;6.10;99.90;;;;;;4948153;28;20062;-87
2022/02/21 01:13:28;;;;;;;4.15;1.20;;;6.10;99.90;;;;;;4943501;28;20066;-87
2022/02/21 01:15:54;;;;;;;9.52;1.58;;;6.00;99.90;;;;;;4933483;28;20562;-87
2022/02/21 01:18:20;;;;;;;4.78;1.00;;;6.00;99.90;;;;;;4959666;28;20081;-88
2022/02/21 01:20:46;;;;;;;13.95;2.33;;;5.90;99.90;;;;;;4953188;28;20030;-87
2022/02/21 01:23:12;;;;;;;7.28;1.13;;;5.80;99.90;;;;;;4947832;28;20045;-87
2022/02/21 01:25:37;;;;;;;5.30;1.23;;;5.90;99.90;;;;;;4938186;28;20041;-86
2022/02/21 01:28:03;;;;;;;5.60;1.10;;;5.80;99.90;;;;;;4948632;28;20027;-88
2022/02/21 01:30:29;;;;;;;6.68;1.30;;;5.80;99.90;;;;;;4954391;28;20034;-87
2022/02/21 01:32:54;;;;;;;6.05;0.90;;;5.80;99.90;;;;;;4935801;28;20030;-87
2022/02/21 01:35:20;;;;;;;12.35;1.55;;;5.60;99.90;;;;;;4950931;28;20054;-87
2022/02/21 01:37:46;;;;;;;5.47;1.00;;;5.70;99.90;;;;;;4946002;28;20272;-88
2022/02/21 01:40:12;;;;;;;10.10;1.35;;;5.70;99.90;;;;;;4950643;28;20031;-88
2022/02/21 01:42:38;;;;;;;4.10;1.40;;;5.70;99.90;;;;;;4936152;28;20041;-87
2022/02/21 01:45:04;;;;;;;5.30;1.35;;;5.60;99.90;;;;;;4948200;28;20032;-86
2022/02/21 01:47:30;;;;;;;9.38;1.30;;;5.50;99.90;;;;;;4950310;28;20026;-88
2022/02/21 01:49:55;;;;;;;5.15;1.05;;;5.60;99.90;;;;;;4949042;28;20037;-87
2022/02/21 01:52:21;;;;;;;5.57;0.77;;;5.60;99.90;;;;;;4936388;28;20394;-87
2022/02/21 01:54:46;;;;;;;8.40;1.60;;;5.60;99.90;;;;;;4939495;28;20019;-88
2022/02/21 01:57:12;;;;;;;10.98;1.42;;;5.60;99.90;;;;;;4950316;28;20542;-87
2022/02/21 01:59:38;;;;;;;7.00;1.15;;;5.50;99.90;;;;;;4935356;28;20656;-87
2022/02/21 02:02:05;;;;;;;10.05;1.30;;;5.60;99.90;;;;;;4953021;28;20031;-88
2022/02/21 02:04:31;;;;;;;6.40;1.27;;;5.50;99.90;;;;;;4932369;28;20449;-88
2022/02/21 02:06:56;;;;;;;7.28;1.63;;;5.50;99.90;;;;;;4940492;28;20030;-88
2022/02/21 02:09:22;;;;;;;12.40;3.55;;;5.50;99.90;;;;;;4946447;28;20395;-87
2022/02/21 02:11:48;;;;;;;11.05;1.70;;;5.30;99.90;;;;;;4951155;28;20034;-87
2022/02/21 02:14:26;;;;;;;9.65;1.70;;;5.30;99.90;;;;;;4949765;28;20126;-87
2022/02/21 02:16:52;;;;;;;5.57;0.50;;;5.30;99.90;;;;;;4960454;28;20117;-87
2022/02/21 02:19:17;;;;;;;8.60;1.73;;;5.30;99.90;;;;;;4961117;28;20418;-87
2022/02/21 02:21:43;;;;;;;8.32;1.25;;;5.30;99.90;;;;;;4936927;28;20129;-87
2022/02/21 02:24:08;;;;;;;5.05;1.00;;;5.20;99.90;;;;;;4942226;28;20484;-87
2022/02/21 02:26:38;;;;;;;6.82;1.52;;;5.20;99.90;;;;;;4958105;28;20497;-87
2022/02/21 02:29:03;;;;;;;8.02;1.25;;;5.30;99.90;;;;;;4925799;28;20517;-86
2022/02/21 02:31:29;;;;;;;12.15;1.83;;;5.20;99.90;;;;;;4935246;28;20027;-87
2022/02/21 02:33:54;;;;;;;10.73;2.03;;;5.20;99.90;;;;;;4928108;28;20034;-87
2022/02/21 02:36:20;;;;;;;4.95;1.13;;;5.10;99.90;;;;;;4931679;28;20082;-87
2022/02/21 02:38:45;;;;;;;11.27;2.70;;;5.00;99.90;;;;;;4944973;28;20380;-87
2022/02/21 02:41:11;;;;;;;9.77;2.08;;;5.10;99.90;;;;;;4959475;28;20503;-87
2022/02/21 02:43:37;;;;;;;4.80;1.33;;;5.10;99.90;;;;;;4943074;28;20038;-87
2022/02/21 02:46:03;;;;;;;5.35;1.55;;;5.10;99.90;;;;;;4927046;28;20035;-87
2022/02/21 02:48:28;;;;;;;15.55;3.38;;;5.10;99.90;;;;;;4926493;28;20803;-87
2022/02/21 02:50:54;;;;;;;5.00;1.38;;;5.10;99.90;;;;;;4927942;28;20595;-87
2022/02/21 02:53:19;;;;;;;12.90;1.73;;;5.10;99.90;;;;;;4934644;28;20130;-87
2022/02/21 02:55:45;;;;;;;12.35;2.58;;;5.00;99.90;;;;;;4943723;28;20050;-87
2022/02/21 02:58:10;;;;;;;15.50;2.30;;;5.00;99.90;;;;;;4931491;28;20054;-87
2022/02/21 03:00:36;;;;;;;4.88;1.38;;;5.00;99.90;;;;;;4933367;28;20062;-87
2022/02/21 03:03:02;;;;;;;10.85;1.45;;;4.90;99.90;;;;;;4941914;28;20110;-87
2022/02/21 03:05:27;;;;;;;18.80;2.20;;;5.10;99.90;;;;;;4934259;28;20034;-87
2022/02/21 03:07:53;;;;;;;8.88;1.83;;;5.00;99.90;;;;;;4946969;28;20035;-87
2022/02/21 03:10:18;;;;;;;7.28;1.38;;;5.10;99.90;;;;;;4945013;28;20035;-87
2022/02/21 03:12:45;;;;;;;14.52;2.28;;;5.00;99.90;;;;;;4944902;28;20089;-87
2022/02/21 03:15:10;;;;;;;9.10;1.30;;;5.00;99.90;;;;;;4944113;28;20022;-87
2022/02/21 03:17:36;;;;;;;5.78;0.73;;;5.00;99.90;;;;;;4932018;28;20026;-87
2022/02/21 03:20:01;;;;;;;6.38;1.40;;;5.00;99.90;;;;;;4945859;28;20415;-87
2022/02/21 03:22:27;;;;;;;8.98;2.13;;;5.00;99.90;;;;;;4928389;28;20049;-87
2022/02/21 03:24:52;;;;;;;8.13;1.17;;;5.00;99.90;;;;;;4934078;28;20437;-87
2022/02/21 03:27:18;;;;;;;12.07;1.98;;;5.00;99.90;;;;;;4934324;28;20027;-87
2022/02/21 03:29:44;;;;;;;12.60;1.48;;;5.00;99.90;;;;;;4958130;28;20034;-87
2022/02/21 03:32:09;;;;;;;8.80;1.67;;;4.80;99.90;;;;;;4946540;28;20078;-86
2022/02/21 03:34:35;;;;;;;8.98;1.38;;;4.80;99.90;;;;;;4943811;28;20064;-87
2022/02/21 03:37:00;;;;;;;6.32;1.80;;;4.60;99.90;;;;;;4941559;28;20031;-87
2022/02/21 03:39:26;;;;;;;7.47;1.30;;;4.30;99.90;;;;;;4946193;28;20058;-86
2022/02/21 03:41:51;;;;;;;6.80;1.77;;;4.20;99.90;;;;;;4928194;28;20162;-86
2022/02/21 03:44:17;;;;;;;12.43;1.90;;;4.10;99.90;;;;;;4931598;28;20043;-87
2022/02/21 03:46:43;;;;;;;10.10;1.50;;;4.10;99.90;;;;;;4933123;28;20043;-87
2022/02/21 03:49:09;;;;;;;9.13;2.45;;;4.20;99.90;;;;;;4950850;28;20035;-88
2022/02/21 03:51:34;;;;;;;8.52;1.58;;;4.20;99.90;;;;;;4932550;28;20034;-87
2022/02/21 03:54:00;;;;;;;6.03;1.80;;;4.20;99.90;;;;;;4939004;28;20072;-88
2022/02/21 03:56:25;;;;;;;5.00;1.17;;;4.20;99.90;;;;;;4961187;28;20038;-88
2022/02/21 03:58:51;;;;;;;5.65;1.20;;;4.20;99.90;;;;;;4938376;28;20026;-88
2022/02/21 04:01:16;;;;;;;13.88;1.77;;;4.10;99.90;;;;;;4937235;28;20042;-89
2022/02/21 04:03:42;;;;;;;5.43;1.17;;;4.10;99.90;;;;;;4932079;28;20066;-88
2022/02/21 04:06:08;;;;;;;8.13;1.40;;;4.10;99.90;;;;;;4961678;28;20033;-88
2022/02/21 04:08:33;;;;;;;8.32;1.77;;;4.10;99.90;;;;;;4951001;28;20031;-87
2022/02/21 04:10:59;;;;;;;12.82;1.83;;;4.00;99.90;;;;;;4947394;28;20117;-86
2022/02/21 04:13:24;;;;;;;8.93;1.75;;;4.10;99.90;;;;;;4959034;28;20050;-87
2022/02/21 04:15:50;;;;;;;10.13;1.50;;;4.00;99.90;;;;;;4946203;28;20501;-87
2022/02/21 04:18:15;;;;;;;9.63;1.38;;;4.00;99.90;;;;;;4931513;28;20112;-88
2022/02/21 04:20:41;;;;;;;14.95;3.08;;;4.00;99.90;;;;;;4956655;28;20114;-87
2022/02/21 04:23:06;;;;;;;9.65;1.52;;;4.10;99.90;;;;;;4946273;28;20039;-87
2022/02/21 04:25:32;;;;;;;9.57;1.85;;;4.20;99.90;;;;;;4938203;28;20034;-88
2022/02/21 04:27:58;;;;;;;5.13;0.95;;;4.10;99.90;;;;;;4935081;28;20113;-87
2022/02/21 04:30:25;;;;;;;15.75;2.40;;;4.10;99.90;;;;;;4934872;28;20503;-88
2022/02/21 04:32:51;;;;;;;9.90;2.03;;;4.10;99.90;;;;;;4936000;28;20047;-87
2022/02/21 04:35:17;;;;;;;6.35;1.10;;;4.10;99.90;;;;;;4931880;28;20104;-87
2022/02/21 04:37:43;;;;;;;10.98;1.45;;;4.00;99.90;;;;;;4975072;28;20023;-87
2022/02/21 04:40:10;;;;;;;17.73;3.00;;;4.00;99.90;;;;;;4944185;28;20126;-87
2022/02/21 04:42:36;;;;;;;10.23;2.05;;;4.00;99.90;;;;;;4948961;28;20093;-86
2022/02/21 04:45:01;;;;;;;13.65;1.60;;;4.00;99.90;;;;;;4935803;28;20106;-88
2022/02/21 04:47:27;;;;;;;6.57;1.63;;;3.90;99.90;;;;;;4947583;28;20046;-87
2022/02/21 04:49:52;;;;;;;10.32;1.70;;;3.80;99.90;;;;;;4939317;28;20027;-87
2022/02/21 04:52:18;;;;;;;9.18;2.10;;;3.80;99.90;;;;;;4943842;28;20104;-88
2022/02/21 04:54:43;;;;;;;7.63;1.65;;;3.60;99.90;;;;;;4930246;28;20055;-87
2022/02/21 04:57:09;;;;;;;7.32;1.23;;;3.80;99.90;;;;;;4936725;28;20034;-87
2022/02/21 04:59:35;;;;;;;6.05;1.25;;;3.70;99.90;;;;;;4942121;28;20145;-88
2022/02/21 05:02:00;;;;;;;5.18;1.05;;;3.70;99.90;;;;;;4930741;28;20030;-88
2022/02/21 05:04:28;;;;;;;8.32;1.63;;;3.50;99.90;;;;;;4932060;28;20121;-87
2022/02/21 05:06:54;;;;;;;12.45;1.90;;;3.50;99.90;;;;;;4960268;28;20034;-90
2022/02/21 05:09:20;;;;;;;12.27;1.90;;;3.50;99.90;;;;;;4924653;28;21477;-89
2022/02/21 05:11:45;;;;;;;9.05;1.02;;;3.40;99.90;;;;;;4946085;28;20435;-90
2022/02/21 05:14:11;;;;;;;11.00;3.08;;;3.50;99.90;;;;;;4951133;28;20030;-91
2022/02/21 05:16:36;;;;;;;8.52;1.58;;;3.50;99.90;;;;;;4941701;28;20041;-88
2022/02/21 05:19:02;;;;;;;6.82;1.20;;;3.50;99.90;;;;;;4960395;28;20038;-90
2022/02/21 05:21:31;;;;;;;8.25;1.63;;;3.50;99.90;;;;;;4934504;28;20039;-88
2022/02/21 05:23:57;;;;;;;8.70;1.17;;;3.40;99.90;;;;;;4960206;28;20193;-89
2022/02/21 05:26:23;;;;;;;12.02;1.58;;;3.50;99.90;;;;;;4933845;28;20637;-90
2022/02/21 05:28:49;;;;;;;5.25;0.95;;;3.40;99.90;;;;;;4934178;28;20367;-89
2022/02/21 05:31:15;;;;;;;6.38;1.15;;;3.40;99.90;;;;;;4944581;28;20031;-89
2022/02/21 05:33:40;;;;;;;6.55;1.13;;;3.30;99.90;;;;;;4933641;28;20034;-89
2022/02/21 05:36:06;;;;;;;6.40;1.88;;;3.20;99.90;;;;;;4949226;28;20498;-90
2022/02/21 05:38:31;;;;;;;14.27;2.25;;;3.20;99.90;;;;;;4938229;28;20118;-89
2022/02/21 05:40:57;;;;;;;10.82;1.73;;;3.20;99.90;;;;;;4916597;28;20045;-89
2022/02/21 05:43:23;;;;;;;8.80;1.80;;;3.10;99.90;;;;;;4931331;28;20486;-89
2022/02/21 05:45:48;;;;;;;6.38;1.42;;;3.10;99.90;;;;;;4935644;28;20514;-88
2022/02/21 05:48:14;;;;;;;6.63;1.65;;;3.20;99.90;;;;;;4936100;28;20042;-88
2022/02/21 05:50:39;;;;;;;4.10;0.70;;;3.20;99.90;;;;;;4951730;28;20049;-88
2022/02/21 05:53:05;;;;;;;4.32;1.05;;;3.20;99.90;;;;;;4945392;28;20030;-89
2022/02/21 05:55:31;;;;;;;12.65;1.90;;;3.30;99.90;;;;;;4933313;28;20043;-89
2022/02/21 05:57:57;;;;;;;4.10;1.30;;;3.30;99.90;;;;;;4931285;28;20030;-89
2022/02/21 06:00:23;;;;;;;8.07;1.52;;;3.40;99.90;;;;;;4933939;28;20031;-89
2022/02/21 06:02:48;;;;;;;9.10;2.33;;;3.30;99.90;;;;;;4932302;28;20063;-89
2022/02/21 06:05:14;;;;;;;6.20;1.67;;;3.20;99.90;;;;;;4937795;28;20411;-91
2022/02/21 06:07:39;;;;;;;7.63;2.38;;;3.20;99.90;;;;;;4954641;28;20141;-88
2022/02/21 06:10:05;;;;;;;5.47;1.60;;;3.20;99.90;;;;;;4964918;28;20110;-90
2022/02/21 06:12:31;;;;;;;8.05;1.98;;;3.20;99.90;;;;;;4950834;28;20102;-90
2022/02/21 06:14:57;;;;;;;7.13;1.60;;;3.20;99.90;;;;;;4937907;28;21015;-89
2022/02/21 06:17:23;;;;;;;7.88;1.38;;;3.20;99.90;;;;;;4943339;28;20037;-88
2022/02/21 06:19:48;;;;;;;5.03;1.25;;;3.10;99.90;;;;;;4936352;28;20494;-89
2022/02/21 06:22:14;;;;;;;11.43;1.98;;;3.10;99.90;;;;;;4922096;28;20059;-88
2022/02/21 06:24:39;;;;;;;8.52;2.38;;;3.20;99.90;;;;;;4944731;28;20483;-89
2022/02/21 06:27:05;;;;;;;6.60;0.95;;;3.10;99.90;;;;;;4949700;28;20034;-89
2022/02/21 06:29:31;;;;;;;11.25;2.25;;;3.00;99.90;;;;;;4947134;28;20038;-89
2022/02/21 06:31:57;;;;;;;2.85;0.90;;;3.00;99.90;;;;;;4946558;28;20093;-90
2022/02/21 06:34:23;;;;;;;8.38;1.42;;;3.00;99.90;;;;;;4935877;28;20644;-89
2022/02/21 06:36:48;;;;;;;5.00;1.42;;;3.00;99.90;;;;;;4948632;28;20206;-87
2022/02/21 06:39:15;;;;;;;1.70;0.98;;;3.00;99.90;;;;;;4930575;28;20038;-88
2022/02/21 06:41:40;;;;;;;8.65;1.92;;;2.90;99.90;;;;;;4931599;28;20066;-88
2022/02/21 06:44:06;;;;;;;6.22;1.50;;;3.00;99.90;;;;;;4963792;28;20066;-88
2022/02/21 06:46:32;;;;;;;7.70;1.55;;;3.00;99.90;;;;;;4963754;28;20041;-89
2022/02/21 06:48:57;;;;;;;3.22;0.70;;;3.00;99.90;;;;;;4943225;28;20064;-88
2022/02/21 06:51:40;;;;;;;7.68;1.92;;;3.10;99.90;;;;;;4935395;28;20026;-88
2022/02/21 06:54:07;;;;;;;6.63;1.40;;;3.00;99.90;;;;;;4944063;28;20041;-88
2022/02/21 06:56:32;;;;;;;3.30;1.30;;;3.00;99.90;;;;;;4945593;28;20031;-89
2022/02/21 06:58:58;;;;;;;10.57;2.28;;;3.00;99.90;;;;;;4948492;28;20521;-89
2022/02/21 07:01:24;;;;;;;11.25;1.25;;;2.90;99.90;;;;;;4945601;28;20043;-88
2022/02/21 07:03:52;;;;;;;2.58;1.23;;;3.00;99.90;;;;;;4933585;28;20491;-88
2022/02/21 07:06:18;;;;;;;9.52;1.33;;;2.90;99.90;;;;;;4932055;28;20519;-88
2022/02/21 07:08:43;;;;;;;33.03;2.90;;;2.90;99.90;;;;;;4937531;28;20150;-88
2022/02/21 07:11:09;;;;;;;4.63;1.35;;;2.90;99.90;;;;;;4968772;28;20484;-88
2022/02/21 07:13:38;;;;;;;9.48;1.50;;;2.90;99.90;;;;;;4944009;28;20096;-88
2022/02/21 07:16:04;;;;;;;5.75;1.55;;;3.00;99.90;;;;;;4956851;28;20410;-88
2022/02/21 07:18:37;;;;;;;1.45;0.47;;;3.10;99.90;;;;;;4936132;28;20030;-88
2022/02/21 07:21:15;;;;;;;5.07;0.65;;;3.20;99.90;;;;;;4934883;28;20442;-88
2022/02/21 07:23:41;;;;;;;4.63;0.73;;;3.10;99.90;;;;;;4937951;28;20503;-88
2022/02/21 07:26:07;;;;;;;4.78;0.85;;;3.10;99.90;;;;;;4922281;28;20044;-88
2022/02/21 07:28:32;;;;;;;13.27;1.73;;;3.10;99.90;;;;;;4949532;28;20054;-88
2022/02/21 07:30:58;;;;;;;2.97;1.20;;;3.10;99.90;;;;;;4932095;28;20072;-87
2022/02/21 07:33:24;;;;;;;7.32;1.63;;;3.10;99.90;;;;;;4955703;28;20064;-87
2022/02/21 07:35:52;;;;;;;7.68;1.55;;;3.20;99.90;;;;;;4944736;28;20030;-89
2022/02/21 07:38:18;;;;;;;4.93;1.20;;;3.20;99.90;;;;;;4921312;28;20113;-88
2022/02/21 07:40:43;;;;;;;4.95;0.93;;;3.20;99.90;;;;;;4933235;28;20116;-88
2022/02/21 07:43:10;;;;;;;7.68;2.00;;;3.30;99.90;;;;;;4921095;28;20041;-88
2022/02/21 07:45:36;;;;;;;0.75;0.57;;;3.40;99.90;;;;;;4916607;28;20052;-88
2022/02/21 07:48:02;;;;;;;9.48;1.77;;;3.30;99.90;;;;;;4949030;28;20038;-88
2022/02/21 07:50:30;;;;;;;9.68;0.98;;;3.30;99.90;;;;;;4948364;28;20050;-88
2022/02/21 07:52:56;;;;;;;6.50;1.67;;;3.40;99.90;;;;;;4946252;28;20050;-88
2022/02/21 07:55:24;;;;;;;8.55;1.50;;;3.30;99.90;;;;;;4945826;28;20092;-88
2022/02/21 07:57:51;;;;;;;9.35;1.30;;;3.40;99.90;;;;;;4935155;28;20514;-88
2022/02/21 08:00:17;;;;;;;11.63;1.48;;;3.50;99.90;;;;;;4928924;28;20061;-88
2022/02/21 08:02:43;;;;;;;10.65;2.17;;;3.40;99.90;;;;;;4951159;28;20097;-88
2022/02/21 08:05:08;;;;;;;6.28;1.50;;;3.50;99.90;;;;;;4931012;28;20043;-88
2022/02/21 08:07:34;;;;;;;9.30;1.90;;;3.50;99.90;;;;;;4943258;28;20027;-87
2022/02/21 08:10:00;;;;;;;5.88;2.28;;;3.60;99.90;;;;;;4943224;28;20034;-87
2022/02/21 08:12:25;;;;;;;5.03;1.38;;;3.60;99.90;;;;;;4934603;28;20522;-87
2022/02/21 08:14:51;;;;;;;9.70;2.13;;;3.70;99.90;;;;;;4945059;28;20062;-88
2022/02/21 08:17:17;;;;;;;5.88;2.60;;;3.70;99.90;;;;;;4933016;28;20039;-88
2022/02/21 08:19:42;;;;;;;10.45;2.53;;;3.80;99.90;;;;;;4943931;28;20036;-87
2022/02/21 08:22:08;;;;;;;7.47;1.50;;;3.80;99.90;;;;;;4945270;28;20519;-86
2022/02/21 08:24:34;;;;;;;9.38;2.28;;;3.90;99.90;;;;;;4937432;28;20038;-88
2022/02/21 08:27:00;;;;;;;6.82;1.80;;;4.00;99.90;;;;;;4962288;28;20038;-88
2022/02/21 08:29:25;;;;;;;15.55;1.92;;;4.00;99.90;;;;;;4936896;28;20271;-87
2022/02/21 08:31:54;;;;;;;8.60;1.95;;;4.10;99.90;;;;;;4957549;28;20026;-87
2022/02/21 08:34:20;;;;;;;5.28;1.60;;;4.10;99.90;;;;;;4931829;28;20035;-87
2022/02/21 08:36:45;;;;;;;6.68;1.95;;;4.10;99.90;;;;;;4932797;28;20141;-86
2022/02/21 08:39:12;;;;;;;9.48;2.10;;;4.10;99.90;;;;;;4931344;28;20030;-86
2022/02/21 08:41:37;;;;;;;12.43;2.13;;;4.20;99.90;;;;;;4949934;28;20133;-87
2022/02/21 08:44:03;;;;;;;13.63;2.38;;;4.20;99.90;;;;;;4959506;28;20109;-87
2022/02/21 08:46:29;;;;;;;14.52;1.55;;;4.20;99.90;;;;;;4929397;28;20093;-87
2022/02/21 08:48:54;;;;;;;13.50;2.80;;;4.40;99.90;;;;;;4938373;28;20348;-86
2022/02/21 08:51:21;;;;;;;12.57;1.83;;;4.40;99.90;;;;;;4958155;28;20041;-86
2022/02/21 08:53:47;;;;;;;5.93;1.70;;;4.60;99.90;;;;;;4945176;28;20042;-86
2022/02/21 08:56:13;;;;;;;13.85;1.80;;;4.70;99.90;;;;;;4944396;28;20039;-87
2022/02/21 08:58:39;;;;;;;9.63;2.40;;;4.80;99.90;;;;;;4934907;28;20039;-87
2022/02/21 09:01:05;;;;;;;15.48;2.17;;;4.90;99.90;;;;;;4947011;28;20057;-87
2022/02/21 09:03:30;;;;;;;8.88;2.08;;;4.90;99.90;;;;;;4928007;28;20047;-87
2022/02/21 09:05:56;;;;;;;9.38;1.98;;;5.00;99.90;;;;;;4931830;28;20038;-87
2022/02/21 09:08:22;;;;;;;11.18;2.38;;;5.10;99.90;;;;;;4944323;28;20034;-87
2022/02/21 09:10:47;;;;;;;4.03;1.10;;;5.40;99.90;;;;;;4945287;28;20141;-87
2022/02/21 09:13:13;;;;;;;1.85;0.75;;;5.30;99.90;;;;;;4945183;28;20495;-87
2022/02/21 09:15:38;;;;;;;4.70;1.02;;;5.40;99.90;;;;;;4930049;28;20273;-87
2022/02/21 09:18:05;;;;;;;5.15;1.23;;;5.50;99.90;;;;;;4959189;28;20027;-87
2022/02/21 09:20:33;;;;;;;8.35;0.88;;;5.60;99.90;;;;;;4929684;28;20073;-87
2022/02/21 09:22:59;;;;;;;4.25;0.80;;;5.70;99.90;;;;;;4953955;28;20494;-87
2022/02/21 09:25:24;;;;;;;2.38;0.82;;;5.90;99.90;;;;;;4931450;28;20041;-87
2022/02/21 09:27:53;;;;;;;6.20;1.00;;;6.10;99.90;;;;;;4921120;28;20031;-87
2022/02/21 09:30:19;;;;;;;10.02;1.50;;;6.20;99.90;;;;;;4924123;28;20031;-87
2022/02/21 09:32:44;;;;;;;5.80;1.23;;;6.10;99.90;;;;;;4956319;28;20026;-87
2022/02/21 09:35:10;;;;;;;8.90;1.48;;;6.10;99.90;;;;;;4945556;28;20399;-87
2022/02/21 09:37:36;;;;;;;11.40;2.13;;;6.30;99.90;;;;;;4948743;28;20478;-87
2022/02/21 09:40:04;;;;;;;6.22;0.95;;;6.30;99.90;;;;;;4927191;28;20447;-85
2022/02/21 09:42:30;;;;;;;6.93;1.90;;;6.40;99.90;;;;;;4945426;28;20058;-87
2022/02/21 09:44:55;;;;;;;8.23;0.98;;;6.40;99.90;;;;;;4935253;28;20058;-86
2022/02/21 09:47:22;;;;;;;8.70;1.83;;;6.40;99.90;;;;;;4936650;28;20113;-86
2022/02/21 09:49:47;;;;;;;5.40;1.52;;;6.40;99.90;;;;;;4963895;28;20037;-87
2022/02/21 09:52:13;;;;;;;5.97;1.77;;;6.40;99.90;;;;;;4943802;28;20031;-88
2022/02/21 09:54:39;;;;;;;5.63;1.63;;;6.50;99.90;;;;;;4939170;28;20039;-87
2022/02/21 09:57:05;;;;;;;1.48;0.50;;;6.60;99.90;;;;;;4948416;28;20110;-87
2022/02/21 09:59:31;;;;;;;8.35;1.63;;;6.60;99.90;;;;;;4935393;28;20109;-87
2022/02/21 10:01:56;;;;;;;6.13;0.95;;;6.60;99.90;;;;;;4935289;28;20479;-86
2022/02/21 10:04:23;;;;;;;9.90;1.55;;;6.60;99.90;;;;;;4918564;28;20165;-88
2022/02/21 10:06:50;;;;;;;6.07;1.83;;;6.60;99.90;;;;;;4931498;28;20037;-87
2022/02/21 10:09:16;;;;;;;5.22;1.15;;;6.50;99.90;;;;;;4925857;28;20042;-87
2022/02/21 10:11:49;;;;;;;3.55;1.25;;;6.50;99.90;;;;;;4927040;28;20487;-88
2022/02/21 10:14:18;;;;;;;8.93;2.35;;;6.50;99.90;;;;;;4974534;28;20122;-88
2022/02/21 10:16:46;;;;;;;5.85;1.40;;;6.50;99.90;;;;;;4959379;28;20086;-87
2022/02/21 10:19:20;;;;;;;4.97;1.75;;;6.50;99.90;;;;;;4953262;28;20445;-88
2022/02/21 10:22:03;;;;;;;6.53;1.50;;;6.40;99.90;;;;;;4961082;28;20035;-87
2022/02/21 10:24:41;;;;;;;4.15;1.30;;;6.40;99.90;;;;;;4945490;28;20049;-87
2022/02/21 10:27:29;;;;;;;9.40;1.85;;;6.20;99.90;;;;;;4980274;28;20111;-87
2022/02/21 10:30:05;;;;;;;9.38;1.58;;;6.20;99.90;;;;;;4940225;28;20027;-86
2022/02/21 10:32:35;;;;;;;9.38;1.40;;;6.20;99.90;;;;;;4950695;28;20038;-87
2022/02/21 10:35:11;;;;;;;4.57;1.33;;;6.10;99.90;;;;;;4923931;28;20423;-90
2022/02/21 10:37:47;;;;;;;9.98;1.48;;;6.10;99.90;;;;;;4954291;28;20569;-89
2022/02/21 10:40:14;;;;;;;3.17;0.93;;;6.00;99.90;;;;;;4947451;28;20532;-87
2022/02/21 10:42:40;;;;;;;5.47;1.95;;;5.90;99.90;;;;;;4960490;28;20070;-88
2022/02/21 10:45:18;;;;;;;5.68;1.23;;;5.70;99.90;;;;;;4925691;28;20546;-88
2022/02/21 10:48:12;;;;;;;9.43;1.80;;;5.50;99.90;;;;;;4952957;28;20465;-88
2022/02/21 10:50:54;;;;;;;10.00;1.95;;;5.50;99.90;;;;;;4943401;28;20031;-89
2022/02/21 10:53:23;;;;;;;16.88;2.92;;;5.30;99.90;;;;;;4953637;28;20049;-89
2022/02/21 10:55:54;;;;;;;14.23;1.92;;;5.20;99.90;;;;;;4950230;28;21530;-89
2022/02/21 10:58:24;;;;;;;9.45;2.00;;;5.10;99.90;;;;;;4954894;28;20482;-90
2022/02/21 11:00:50;;;;;;;13.65;1.70;;;5.00;99.90;;;;;;4939915;28;20156;-89
2022/02/21 11:03:22;;;;;;;6.88;1.50;;;4.90;99.90;;;;;;4940876;28;20098;-89
2022/02/21 11:05:48;;;;;;;6.60;2.22;;;4.80;99.90;;;;;;4946821;28;20142;-90
2022/02/21 11:08:18;;;;;;;4.20;0.82;;;4.80;99.90;;;;;;4962751;28;20049;-89
2022/02/21 11:10:45;;;;;;;5.50;0.77;;;4.80;99.90;;;;;;4954899;28;20280;-88
2022/02/21 11:13:14;;;;;;;8.13;1.92;;;4.80;99.90;;;;;;4961204;28;20034;-89
2022/02/21 11:15:40;;;;;;;8.18;0.95;;;4.80;99.90;;;;;;4954971;28;20034;-89
2022/02/21 11:18:06;;;;;;;4.50;1.02;;;4.70;99.90;;;;;;4946859;28;20117;-88
2022/02/21 11:20:32;;;;;;;6.22;2.03;;;4.70;99.90;;;;;;4929428;28;20031;-88
2022/02/21 11:22:57;;;;;;;8.13;1.95;;;4.70;99.90;;;;;;4946185;28;20046;-90
2022/02/21 11:25:44;;;;;;;8.60;1.85;;;4.60;99.90;;;;;;4955174;28;20039;-89
2022/02/21 11:28:22;;;;;;;4.28;1.02;;;4.60;99.90;;;;;;4948209;28;20075;-88
2022/02/21 11:30:48;;;;;;;5.70;1.45;;;4.60;99.90;;;;;;4971464;28;20031;-89
2022/02/21 11:33:14;;;;;;;6.07;1.75;;;4.60;99.90;;;;;;4937692;28;20042;-90
2022/02/21 11:36:05;;;;;;;8.48;1.77;;;4.60;99.90;;;;;;4937344;28;20386;-89
2022/02/21 11:38:33;;;;;;;9.80;2.38;;;4.70;99.90;;;;;;4953245;28;20057;-90
2022/02/21 11:41:07;;;;;;;9.85;1.85;;;4.70;99.90;;;;;;4929348;28;20035;-89
2022/02/21 11:43:39;;;;;;;6.85;1.52;;;4.60;99.90;;;;;;4932664;28;20031;-90
2022/02/21 11:46:09;;;;;;;12.70;2.15;;;4.70;99.90;;;;;;4928334;28;20074;-90
2022/02/21 11:48:57;;;;;;;9.25;2.45;;;4.70;99.90;;;;;;4936474;28;20038;-90
2022/02/21 11:51:34;;;;;;;5.40;1.27;;;4.60;99.90;;;;;;4963739;28;20391;-90
2022/02/21 11:54:12;;;;;;;7.35;1.38;;;4.60;99.90;;;;;;4970794;28;20038;-89
2022/02/21 11:56:55;;;;;;;6.57;1.60;;;4.60;99.90;;;;;;4979874;28;20117;-90
2022/02/21 11:59:21;;;;;;;13.25;1.80;;;4.60;99.90;;;;;;4966919;28;20040;-89
2022/02/21 12:02:12;;;;;;;8.38;1.83;;;4.70;99.90;;;;;;4971581;28;20398;-90
2022/02/21 12:04:57;;;;;;;8.23;1.98;;;4.60;99.90;;;;;;4953320;28;20598;-89
2022/02/21 12:07:31;;;;;;;6.72;2.35;;;4.70;99.90;;;;;;4968763;28;20034;-90
2022/02/21 12:10:24;;;;;;;6.95;2.25;;;4.60;99.90;;;;;;4926456;28;20487;-89
2022/02/21 12:13:21;;;;;;;8.35;1.70;;;4.70;99.90;;;;;;4960468;28;20039;-89
2022/02/21 12:16:06;;;;;;;5.00;1.52;;;4.70;99.90;;;;;;4942032;28;20023;-90
2022/02/21 12:19:01;;;;;;;8.98;1.42;;;4.70;99.90;;;;;;4267485;28;9999948;-89
2022/02/21 12:21:30;;;;;;;8.43;2.50;;;4.70;99.90;;;;;;4957208;28;20035;-89
2022/02/21 12:23:56;;;;;;;9.30;2.17;;;4.70;99.90;;;;;;4926899;28;20039;-89
2022/02/21 12:26:47;;;;;;;6.25;1.85;;;4.70;99.90;;;;;;4959303;28;20066;-89
2022/02/21 12:29:17;;;;;;;7.25;1.55;;;4.70;99.90;;;;;;4943225;28;20066;-88
2022/02/21 12:31:56;;;;;;;5.80;0.90;;;4.70;99.90;;;;;;4951089;28;20097;-89
2022/02/21 12:34:26;;;;;;;4.20;1.92;;;4.80;99.90;;;;;;4972565;28;20038;-89
2022/02/21 12:36:56;;;;;;;7.68;2.38;;;4.80;99.90;;;;;;4939392;28;20059;-88
2022/02/21 12:39:26;;;;;;;7.65;2.35;;;4.90;99.90;;;;;;4956675;28;20054;-89
2022/02/21 12:41:52;;;;;;;5.00;1.02;;;4.80;99.90;;;;;;4941863;28;20053;-89
2022/02/21 12:44:19;;;;;;;7.70;2.20;;;4.90;99.90;;;;;;4963837;28;20042;-90
2022/02/21 12:46:48;;;;;;;8.18;2.38;;;5.00;99.90;;;;;;4949839;28;20041;-90
2022/02/21 12:49:24;;;;;;;9.98;2.38;;;5.10;99.90;;;;;;4954510;28;20035;-88
2022/02/21 12:51:54;;;;;;;10.85;1.75;;;5.10;99.90;;;;;;4951727;28;20035;-89
2022/02/21 12:54:20;;;;;;;7.88;2.53;;;5.20;99.90;;;;;;4924526;28;20495;-88
2022/02/21 12:57:04;;;;;;;7.10;1.50;;;5.20;99.90;;;;;;4953983;28;20038;-88